createdAt,value
2019-05-20T00:02:25.849Z,31.48
2019-05-20T00:04:51.322Z,30.05
2019-05-20T00:07:22.339Z,31.23
2019-05-20T00:09:53.354Z,32.03
2019-05-20T00:12:24.128Z,28.15
2019-05-20T00:14:55.000Z,25.70
2019-05-20T00:17:26.060Z,24.50
2019-05-20T00:19:57.179Z,24.92
2019-05-20T00:22:27.891Z,33.18
2019-05-20T00:24:58.635Z,28.73
2019-05-20T00:27:29.573Z,22.30
2019-05-20T00:30:00.555Z,26.33
2019-05-20T00:32:40.633Z,24.30
2019-05-20T00:35:03.691Z,31.00
2019-05-20T00:37:34.587Z,24.52
2019-05-20T00:40:07.220Z,30.70
2019-05-20T00:42:38.474Z,23.77
2019-05-20T00:45:09.714Z,25.23
2019-05-20T00:47:40.582Z,22.73
2019-05-20T00:50:12.375Z,25.57
2019-05-20T00:52:43.085Z,27.60
2019-05-20T00:55:16.569Z,22.95
2019-05-20T00:57:47.531Z,22.20
2019-05-20T01:00:18.431Z,22.22
2019-05-20T01:02:56.544Z,23.50
2019-05-20T01:05:21.650Z,21.17
2019-05-20T01:07:52.633Z,28.10
2019-05-20T01:10:23.419Z,22.65
2019-05-20T01:12:54.405Z,27.15
2019-05-20T01:15:25.131Z,25.43
2019-05-20T01:17:56.025Z,20.02
2019-05-20T01:20:27.047Z,35.85
2019-05-20T01:22:58.030Z,26.87
2019-05-20T01:25:29.007Z,25.27
2019-05-20T01:27:59.953Z,20.48
2019-05-20T01:30:30.861Z,20.95
2019-05-20T01:33:13.189Z,23.22
2019-05-20T01:38:03.970Z,21.90
2019-05-20T01:40:34.858Z,22.62
2019-05-20T01:43:05.758Z,20.60
2019-05-20T01:45:36.623Z,23.05
2019-05-20T01:48:07.506Z,27.27
2019-05-20T01:50:38.521Z,22.45
2019-05-20T01:53:09.991Z,25.37
2019-05-20T01:55:40.963Z,21.68
2019-05-20T01:58:11.992Z,21.75
2019-05-20T02:00:43.383Z,19.75
2019-05-20T02:03:30.451Z,25.82
2019-05-20T02:05:47.573Z,21.62
2019-05-20T02:08:19.768Z,26.30
2019-05-20T02:10:50.765Z,42.38
2019-05-20T02:13:21.590Z,27.80
2019-05-20T02:15:53.688Z,20.97
2019-05-20T02:18:24.776Z,33.45
2019-05-20T02:20:55.679Z,22.30
2019-05-20T02:23:26.534Z,24.92
2019-05-20T02:25:57.460Z,19.35
2019-05-20T02:28:28.440Z,18.85
2019-05-20T02:30:59.348Z,18.82
2019-05-20T02:33:47.566Z,26.02
2019-05-20T02:38:32.524Z,17.80
2019-05-20T02:41:03.513Z,17.92
2019-05-20T02:43:34.854Z,23.42
2019-05-20T02:46:06.261Z,20.80
2019-05-20T02:48:37.190Z,19.62
2019-05-20T02:51:08.096Z,20.32
2019-05-20T02:53:39.001Z,18.42
2019-05-20T02:56:10.125Z,20.43
2019-05-20T02:58:40.984Z,17.45
2019-05-20T03:01:11.914Z,17.48
2019-05-20T03:03:42.943Z,18.40
2019-05-20T03:06:13.773Z,21.55
2019-05-20T03:08:44.751Z,16.50
2019-05-20T03:11:15.614Z,18.45
2019-05-20T03:13:48.085Z,17.30
2019-05-20T03:16:19.001Z,18.25
2019-05-20T03:18:49.917Z,25.50
2019-05-20T03:21:20.955Z,17.30
2019-05-20T03:23:51.919Z,23.15
2019-05-20T03:26:22.885Z,20.77
2019-05-20T03:28:53.738Z,20.23
2019-05-20T03:31:24.535Z,18.95
2019-05-20T03:33:55.994Z,15.25
2019-05-20T03:36:26.944Z,16.35
2019-05-20T03:38:57.781Z,19.48
2019-05-20T03:41:28.595Z,18.90
2019-05-20T03:43:59.649Z,18.70
2019-05-20T03:46:30.632Z,20.30
2019-05-20T03:49:01.539Z,22.13
2019-05-20T03:51:32.568Z,21.07
2019-05-20T03:54:03.445Z,18.95
2019-05-20T03:56:34.530Z,18.27
2019-05-20T03:59:05.388Z,20.72
2019-05-20T04:01:37.250Z,21.35
2019-05-20T04:04:08.277Z,17.75
2019-05-20T04:06:40.311Z,26.07
2019-05-20T04:09:11.500Z,14.55
2019-05-20T04:11:42.511Z,21.50
2019-05-20T04:14:13.454Z,18.23
2019-05-20T04:16:44.241Z,21.05
2019-05-20T04:19:15.134Z,16.05
2019-05-20T04:21:45.941Z,20.35
2019-05-20T04:24:17.290Z,16.35
2019-05-20T04:26:48.316Z,20.12
2019-05-20T04:29:19.214Z,14.20
2019-05-20T04:31:50.319Z,19.57
2019-05-20T04:34:21.295Z,23.33
2019-05-20T04:36:52.129Z,20.65
2019-05-20T04:39:23.194Z,19.15
2019-05-20T04:41:54.269Z,20.53
2019-05-20T04:44:25.244Z,17.57
2019-05-20T04:46:57.897Z,16.77
2019-05-20T04:49:28.414Z,19.67
2019-05-20T04:51:59.464Z,17.67
2019-05-20T04:54:30.408Z,17.63
2019-05-20T04:57:01.405Z,22.37
2019-05-20T04:59:32.399Z,14.47
2019-05-20T05:02:03.394Z,17.95
2019-05-20T05:04:34.349Z,19.50
2019-05-20T05:07:05.304Z,16.67
2019-05-20T05:09:36.178Z,16.20
2019-05-20T05:12:07.189Z,14.85
2019-05-20T05:14:38.340Z,14.60
2019-05-20T05:17:09.326Z,14.10
2019-05-20T05:19:40.084Z,16.77
2019-05-20T05:22:10.850Z,17.42
2019-05-20T05:24:41.758Z,16.85
2019-05-20T05:27:12.676Z,16.97
2019-05-20T05:29:46.259Z,18.17
2019-05-20T05:32:19.359Z,25.05
2019-05-20T05:34:50.173Z,17.00
2019-05-20T05:37:21.067Z,15.75
2019-05-20T05:39:54.214Z,18.43
2019-05-20T05:42:24.750Z,13.50
2019-05-20T05:44:55.734Z,19.63
2019-05-20T05:47:26.624Z,20.97
2019-05-20T05:49:57.546Z,15.18
2019-05-20T05:52:29.732Z,14.33
2019-05-20T05:55:00.638Z,14.23
2019-05-20T05:57:31.581Z,15.88
2019-05-20T06:00:02.434Z,17.32
2019-05-20T06:02:33.574Z,16.32
2019-05-20T06:05:04.584Z,13.15
2019-05-20T06:07:35.671Z,14.10
2019-05-20T06:10:09.039Z,18.52
2019-05-20T06:12:39.865Z,26.97
2019-05-20T06:15:11.076Z,14.13
2019-05-20T06:17:42.124Z,13.75
2019-05-20T06:20:13.333Z,16.63
2019-05-20T06:22:44.295Z,17.87
2019-05-20T06:25:15.660Z,11.80
2019-05-20T06:27:46.618Z,15.25
2019-05-20T06:30:17.799Z,14.33
2019-05-20T06:32:48.790Z,18.32
2019-05-20T06:35:19.752Z,14.03
2019-05-20T06:37:51.883Z,17.20
2019-05-20T06:40:22.717Z,15.05
2019-05-20T06:42:53.878Z,20.92
2019-05-20T06:45:24.851Z,14.65
2019-05-20T06:47:55.829Z,15.17
2019-05-20T06:50:29.602Z,17.77
2019-05-20T06:52:59.214Z,15.08
2019-05-20T06:55:30.191Z,19.17
2019-05-20T06:58:01.137Z,14.73
2019-05-20T07:00:34.521Z,15.30
2019-05-20T07:03:05.770Z,14.43
2019-05-20T07:05:36.946Z,14.05
2019-05-20T07:08:09.644Z,18.62
2019-05-20T07:10:40.173Z,17.45
2019-05-20T07:13:11.015Z,19.30
2019-05-20T07:15:43.473Z,18.42
2019-05-20T07:18:13.857Z,14.25
2019-05-20T07:20:44.535Z,22.60
2019-05-20T07:23:15.535Z,18.40
2019-05-20T07:25:46.499Z,15.60
2019-05-20T07:28:17.480Z,18.43
2019-05-20T07:30:48.528Z,15.20
2019-05-20T07:33:19.420Z,11.40
2019-05-20T07:35:50.481Z,15.27
2019-05-20T07:38:21.407Z,13.07
2019-05-20T07:40:53.520Z,18.70
2019-05-20T07:43:24.424Z,17.12
2019-05-20T07:45:55.413Z,13.93
2019-05-20T07:48:41.428Z,15.57
2019-05-20T07:51:12.822Z,19.65
2019-05-20T07:53:43.826Z,13.95
2019-05-20T07:56:17.088Z,20.27
2019-05-20T07:58:49.772Z,14.35
2019-05-20T08:01:20.717Z,14.80
2019-05-20T08:03:51.694Z,15.87
2019-05-20T08:06:22.572Z,18.23
2019-05-20T08:08:53.327Z,16.40
2019-05-20T08:11:24.168Z,20.05
2019-05-20T08:13:54.922Z,16.80
2019-05-20T08:16:25.912Z,14.78
2019-05-20T08:18:56.895Z,17.37
2019-05-20T08:21:27.715Z,12.87
2019-05-20T08:23:58.419Z,15.43
2019-05-20T08:26:29.359Z,17.00
2019-05-20T08:29:00.329Z,11.63
2019-05-20T08:31:31.810Z,13.63
2019-05-20T08:34:02.575Z,13.10
2019-05-20T08:36:33.712Z,17.65
2019-05-20T08:39:05.852Z,17.10
2019-05-20T08:41:37.354Z,14.38
2019-05-20T08:44:08.110Z,14.25
2019-05-20T08:46:38.774Z,14.05
2019-05-20T08:49:11.199Z,12.85
2019-05-20T08:51:41.875Z,12.60
2019-05-20T08:54:13.647Z,13.15
2019-05-20T08:56:44.446Z,15.55
2019-05-20T08:59:15.372Z,15.25
2019-05-20T09:01:46.373Z,13.83
2019-05-20T09:04:17.340Z,12.90
2019-05-20T09:06:48.333Z,15.83
2019-05-20T09:09:19.248Z,14.13
2019-05-20T09:11:50.294Z,13.87
2019-05-20T09:14:21.099Z,14.27
2019-05-20T09:16:51.952Z,14.75
2019-05-20T09:19:22.844Z,12.50
2019-05-20T09:21:53.942Z,12.73
2019-05-20T09:24:24.685Z,13.08
2019-05-20T09:26:55.661Z,18.05
2019-05-20T09:29:26.694Z,15.37
2019-05-20T09:31:57.635Z,13.20
2019-05-20T09:34:28.702Z,12.78
2019-05-20T09:37:00.570Z,14.45
2019-05-20T09:39:31.398Z,14.05
2019-05-20T09:42:02.320Z,10.03
2019-05-20T09:44:33.460Z,9.53
2019-05-20T09:47:04.405Z,14.38
2019-05-20T09:49:35.312Z,14.63
2019-05-20T09:52:06.323Z,17.60
2019-05-20T09:54:37.422Z,22.62
2019-05-20T09:57:08.387Z,17.23
2019-05-20T09:59:43.467Z,14.20
2019-05-20T10:02:11.411Z,15.83
2019-05-20T10:04:42.390Z,14.93
2019-05-20T10:07:13.330Z,14.87
2019-05-20T10:09:44.239Z,10.43
2019-05-20T10:12:15.149Z,18.40
2019-05-20T10:14:46.151Z,10.90
2019-05-20T10:17:17.201Z,15.23
2019-05-20T10:19:48.268Z,10.37
2019-05-20T10:22:19.159Z,12.83
2019-05-20T10:24:50.214Z,10.60
2019-05-20T10:27:21.511Z,15.00
2019-05-20T10:29:52.635Z,15.65
2019-05-20T10:32:23.606Z,15.35
2019-05-20T10:34:54.588Z,12.93
2019-05-20T10:37:25.522Z,12.10
2019-05-20T10:39:56.472Z,11.77
2019-05-20T10:42:27.412Z,15.30
2019-05-20T10:44:58.291Z,11.13
2019-05-20T10:47:29.308Z,12.00
2019-05-20T10:50:00.247Z,9.03
2019-05-20T10:52:31.144Z,14.53
2019-05-20T10:55:01.972Z,12.77
2019-05-20T10:57:33.106Z,14.98
2019-05-20T11:00:03.995Z,15.25
2019-05-20T11:02:35.075Z,16.02
2019-05-20T11:05:07.562Z,20.87
2019-05-20T11:07:38.601Z,16.65
2019-05-20T11:10:09.683Z,17.20
2019-05-20T11:12:40.591Z,19.00
2019-05-20T11:15:11.847Z,24.85
2019-05-20T11:17:42.638Z,35.03
2019-05-20T11:20:13.489Z,38.75
2019-05-20T11:22:44.456Z,32.38
2019-05-20T11:25:15.853Z,25.47
2019-05-20T11:27:47.199Z,25.45
2019-05-20T11:30:18.062Z,28.70
2019-05-20T11:32:49.259Z,22.00
2019-05-20T11:35:20.022Z,27.55
2019-05-20T11:37:50.982Z,22.45
2019-05-20T11:40:22.060Z,45.03
2019-05-20T11:42:52.850Z,37.03
2019-05-20T11:45:23.594Z,33.05
2019-05-20T11:47:54.411Z,30.95
2019-05-20T11:50:25.422Z,25.57
2019-05-20T11:52:56.361Z,26.83
2019-05-20T11:55:27.388Z,20.90
2019-05-20T11:58:14.435Z,22.90
2019-05-20T12:00:30.800Z,20.77
2019-05-20T12:03:01.864Z,25.67
2019-05-20T12:05:32.863Z,31.73
2019-05-20T12:08:03.828Z,21.20
2019-05-20T12:10:34.862Z,22.13
2019-05-20T12:13:05.755Z,25.70
2019-05-20T12:15:36.707Z,26.23
2019-05-20T12:18:07.645Z,29.10
2019-05-20T12:20:38.612Z,27.60
2019-05-20T12:23:09.731Z,26.65
2019-05-20T12:25:40.644Z,24.97
2019-05-20T12:28:11.644Z,27.52
2019-05-20T12:30:42.629Z,29.27
2019-05-20T12:33:19.084Z,29.20
2019-05-20T12:35:45.590Z,29.18
2019-05-20T12:38:16.338Z,22.15
2019-05-20T12:40:47.055Z,26.25
2019-05-20T12:43:18.142Z,23.35
2019-05-20T12:45:49.095Z,20.20
2019-05-20T12:48:20.031Z,23.67
2019-05-20T12:50:50.897Z,23.22
2019-05-20T12:53:21.857Z,18.73
2019-05-20T12:55:52.750Z,23.17
2019-05-20T12:58:23.829Z,25.40
2019-05-20T13:00:54.727Z,21.97
2019-05-20T13:03:25.642Z,19.57
2019-05-20T13:05:56.480Z,21.85
2019-05-20T13:08:27.410Z,25.57
2019-05-20T13:10:58.165Z,23.67
2019-05-20T13:13:29.052Z,21.05
2019-05-20T13:15:59.868Z,23.27
2019-05-20T13:18:30.663Z,22.48
2019-05-20T13:21:01.656Z,22.75
2019-05-20T13:23:32.694Z,18.77
2019-05-20T13:26:03.493Z,19.52
2019-05-20T13:28:34.989Z,20.72
2019-05-20T13:31:06.134Z,18.23
2019-05-20T13:33:37.089Z,19.77
2019-05-20T13:36:07.869Z,22.15
2019-05-20T13:38:38.824Z,19.60
2019-05-20T13:41:09.580Z,20.05
2019-05-20T13:43:40.529Z,18.30
2019-05-20T13:46:11.569Z,15.98
2019-05-20T13:48:42.497Z,17.90
2019-05-20T13:51:13.570Z,16.60
2019-05-20T13:53:44.411Z,19.83
2019-05-20T13:56:15.583Z,16.60
2019-05-20T13:58:46.575Z,15.07
2019-05-20T14:01:17.377Z,16.97
2019-05-20T14:03:48.342Z,12.93
2019-05-20T14:06:19.274Z,16.03
2019-05-20T14:08:50.564Z,23.65
2019-05-20T14:11:33.784Z,19.55
2019-05-20T14:13:53.631Z,26.62
2019-05-20T14:16:24.473Z,21.25
2019-05-20T14:18:55.587Z,19.15
2019-05-20T14:21:26.592Z,22.43
2019-05-20T14:23:57.604Z,28.47
2019-05-20T14:26:28.525Z,20.40
2019-05-20T14:28:59.761Z,20.17
2019-05-20T14:31:30.650Z,25.47
2019-05-20T14:34:01.658Z,24.18
2019-05-20T14:36:40.430Z,21.35
2019-05-20T14:39:06.077Z,24.80
2019-05-20T14:41:37.219Z,20.35
2019-05-20T14:44:08.125Z,24.87
2019-05-20T14:46:39.006Z,27.25
2019-05-20T14:49:09.876Z,21.37
2019-05-20T14:51:40.906Z,23.15
2019-05-20T14:54:12.180Z,29.40
2019-05-20T14:56:43.040Z,22.85
2019-05-20T14:59:14.012Z,19.52
2019-05-20T15:01:44.922Z,25.30
2019-05-20T15:04:15.947Z,26.10
2019-05-20T15:06:46.975Z,18.42
2019-05-20T15:09:17.982Z,20.37
2019-05-20T15:11:49.020Z,21.50
2019-05-20T15:14:19.819Z,21.60
2019-05-20T15:16:50.609Z,18.02
2019-05-20T15:19:21.602Z,19.17
2019-05-20T15:21:52.718Z,20.88
2019-05-20T15:24:23.709Z,18.40
2019-05-20T15:26:55.054Z,21.15
2019-05-20T15:29:28.372Z,17.98
2019-05-20T15:31:58.222Z,18.55
2019-05-20T15:34:28.945Z,15.85
2019-05-20T15:36:59.887Z,16.45
2019-05-20T15:39:30.749Z,23.67
2019-05-20T15:42:01.806Z,14.47
2019-05-20T15:44:32.787Z,18.70
2019-05-20T15:47:03.780Z,17.55
2019-05-20T15:49:34.727Z,19.85
2019-05-20T15:52:05.652Z,22.05
2019-05-20T15:54:36.539Z,24.40
2019-05-20T15:57:07.525Z,13.90
2019-05-20T15:59:46.063Z,15.65
2019-05-20T16:02:10.837Z,12.88
2019-05-20T16:04:41.567Z,16.12
2019-05-20T16:07:12.519Z,14.95
2019-05-20T16:09:43.446Z,18.75
2019-05-20T16:12:14.506Z,13.40
2019-05-20T16:14:45.535Z,20.13
2019-05-20T16:17:16.414Z,13.78
2019-05-20T16:19:47.271Z,11.73
2019-05-20T16:22:18.285Z,19.85
2019-05-20T16:24:49.295Z,15.08
2019-05-20T16:27:20.184Z,12.98
2019-05-20T16:30:05.485Z,15.40
2019-05-20T16:32:23.554Z,12.33
2019-05-20T16:34:54.512Z,11.97
2019-05-20T16:37:25.537Z,13.68
2019-05-20T16:39:56.433Z,17.00
2019-05-20T16:42:27.584Z,13.40
2019-05-20T16:44:58.624Z,14.43
2019-05-20T16:47:29.704Z,12.33
2019-05-20T16:50:00.758Z,15.63
2019-05-20T16:52:31.895Z,14.05
2019-05-20T16:55:02.870Z,12.37
2019-05-20T16:57:33.832Z,11.73
2019-05-20T17:00:07.911Z,13.60
2019-05-20T17:02:37.199Z,11.90
2019-05-20T17:05:08.526Z,14.10
2019-05-20T17:07:39.654Z,16.42
2019-05-20T17:10:10.542Z,14.38
2019-05-20T17:12:41.559Z,12.70
2019-05-20T17:15:12.559Z,10.53
2019-05-20T17:17:43.407Z,13.75
2019-05-20T17:20:14.445Z,15.48
2019-05-20T17:22:45.301Z,14.78
2019-05-20T17:25:16.150Z,12.70
2019-05-20T17:27:46.937Z,16.17
2019-05-20T17:30:17.868Z,15.00
2019-05-20T17:32:48.895Z,13.15
2019-05-20T17:35:20.146Z,13.32
2019-05-20T17:37:54.705Z,12.00
2019-05-20T17:40:23.379Z,15.90
2019-05-20T17:42:54.507Z,14.33
2019-05-20T17:45:25.458Z,11.85
2019-05-20T17:47:56.476Z,14.63
2019-05-20T17:50:27.301Z,12.70
2019-05-20T17:52:59.204Z,14.73
2019-05-20T17:55:30.321Z,10.25
2019-05-20T17:58:01.187Z,16.20
2019-05-20T18:00:31.887Z,14.10
2019-05-20T18:03:02.674Z,14.47
2019-05-20T18:05:33.502Z,12.88
2019-05-20T18:08:04.549Z,15.90
2019-05-20T18:10:35.436Z,15.15
2019-05-20T18:13:06.867Z,13.48
2019-05-20T18:15:37.730Z,19.98
2019-05-20T18:18:08.741Z,15.78
2019-05-20T18:20:39.793Z,16.82
2019-05-20T18:23:10.615Z,13.70
2019-05-20T18:25:41.627Z,14.90
2019-05-20T18:28:13.247Z,15.88
2019-05-20T18:30:44.114Z,15.78
2019-05-20T18:33:15.177Z,16.32
2019-05-20T18:35:46.063Z,16.50
2019-05-20T18:38:16.822Z,13.58
2019-05-20T18:40:47.834Z,17.60
2019-05-20T18:43:18.662Z,16.05
2019-05-20T18:45:49.525Z,14.73
2019-05-20T18:48:20.363Z,17.82
2019-05-20T18:50:51.066Z,19.70
2019-05-20T18:53:22.273Z,17.27
2019-05-20T18:55:53.051Z,25.90
2019-05-20T18:58:23.817Z,20.08
2019-05-20T19:00:54.663Z,15.25
2019-05-20T19:03:25.983Z,14.30
2019-05-20T19:05:57.460Z,15.93
2019-05-20T19:08:29.169Z,15.75
2019-05-20T19:11:00.233Z,17.30
2019-05-20T19:13:31.032Z,17.95
2019-05-20T19:16:01.893Z,13.43
2019-05-20T19:18:32.696Z,13.83
2019-05-20T19:21:03.445Z,15.68
2019-05-20T19:23:34.436Z,13.78
2019-05-20T19:26:05.238Z,11.75
2019-05-20T19:28:36.275Z,19.95
2019-05-20T19:31:08.133Z,12.63
2019-05-20T19:33:39.151Z,14.90
2019-05-20T19:36:09.996Z,16.60
2019-05-20T19:38:40.916Z,9.78
2019-05-20T19:41:11.880Z,13.20
2019-05-20T19:43:42.908Z,14.20
2019-05-20T19:46:13.706Z,13.35
2019-05-20T19:48:44.680Z,10.93
2019-05-20T19:51:15.423Z,11.97
2019-05-20T19:53:46.192Z,16.90
2019-05-20T19:56:17.219Z,14.70
2019-05-20T19:58:48.156Z,16.15
2019-05-20T20:01:19.136Z,13.98
2019-05-20T20:03:50.069Z,15.35
2019-05-20T20:06:21.126Z,13.93
2019-05-20T20:08:52.013Z,16.57
2019-05-20T20:11:22.985Z,17.35
2019-05-20T20:13:54.077Z,14.87
2019-05-20T20:16:25.030Z,15.25
2019-05-20T20:18:55.955Z,18.05
2019-05-20T20:21:26.961Z,17.32
2019-05-20T20:23:57.664Z,15.40
2019-05-20T20:26:28.689Z,15.35
2019-05-20T20:28:59.498Z,16.45
2019-05-20T20:31:30.899Z,16.93
2019-05-20T20:34:01.766Z,18.47
2019-05-20T20:36:32.992Z,19.30
2019-05-20T20:39:03.997Z,16.32
2019-05-20T20:41:35.049Z,18.37
2019-05-20T20:44:06.082Z,14.20
2019-05-20T20:46:40.372Z,15.70
2019-05-20T20:49:11.332Z,19.70
2019-05-20T20:51:43.311Z,14.83
2019-05-20T20:54:14.222Z,18.50
2019-05-20T20:56:45.217Z,18.10
2019-05-20T20:59:16.112Z,21.20
2019-05-20T21:01:47.460Z,15.83
2019-05-20T21:04:18.559Z,19.60
2019-05-20T21:06:49.865Z,19.45
2019-05-20T21:09:20.751Z,16.70
2019-05-20T21:11:52.746Z,17.95
2019-05-20T21:14:23.743Z,19.48
2019-05-20T21:16:54.628Z,16.15
2019-05-20T21:19:25.773Z,18.85
2019-05-20T21:21:56.766Z,18.52
2019-05-20T21:24:27.675Z,15.55
2019-05-20T21:26:59.380Z,21.82
2019-05-20T21:29:32.423Z,17.77
2019-05-20T21:32:02.735Z,19.52
2019-05-20T21:34:33.651Z,16.45
2019-05-20T21:37:04.678Z,17.52
2019-05-20T21:39:35.737Z,16.82
2019-05-20T21:42:06.603Z,14.90
2019-05-20T21:44:37.330Z,20.85
2019-05-20T21:47:08.590Z,16.60
2019-05-20T21:49:39.451Z,18.52
2019-05-20T21:52:10.349Z,17.02
2019-05-20T21:54:41.739Z,19.02
2019-05-20T21:57:12.544Z,16.60
2019-05-20T21:59:43.394Z,18.15
2019-05-20T22:02:14.428Z,17.23
2019-05-20T22:04:45.428Z,17.70
2019-05-20T22:07:16.298Z,20.85
2019-05-20T22:09:47.377Z,20.27
2019-05-20T22:12:18.598Z,21.00
2019-05-20T22:14:49.632Z,17.93
2019-05-20T22:17:20.466Z,22.17
2019-05-20T22:19:51.446Z,16.45
2019-05-20T22:22:23.733Z,21.73
2019-05-20T22:24:54.802Z,22.02
2019-05-20T22:27:25.806Z,22.52
2019-05-20T22:29:56.936Z,19.95
2019-05-20T22:32:28.145Z,23.57
2019-05-20T22:34:59.018Z,23.83
2019-05-20T22:37:30.051Z,23.05
2019-05-20T22:40:01.023Z,21.55
2019-05-20T22:42:32.057Z,19.65
2019-05-20T22:45:02.966Z,18.90
2019-05-20T22:47:33.861Z,23.90
2019-05-20T22:50:04.976Z,22.02
2019-05-20T22:52:35.924Z,22.82
2019-05-20T22:55:07.329Z,23.47
2019-05-20T22:57:38.137Z,21.33
2019-05-20T23:00:08.938Z,21.37
2019-05-20T23:02:39.951Z,18.75
2019-05-20T23:05:11.232Z,20.35
2019-05-20T23:07:42.423Z,20.63
2019-05-20T23:10:13.372Z,20.85
2019-05-20T23:12:44.598Z,16.25
2019-05-20T23:15:15.570Z,26.45
2019-05-20T23:17:46.542Z,25.17
2019-05-20T23:20:17.635Z,21.17
2019-05-20T23:22:48.593Z,24.55
2019-05-20T23:25:19.493Z,20.35
2019-05-20T23:27:50.562Z,24.72
2019-05-20T23:30:21.325Z,20.80
2019-05-20T23:32:52.870Z,19.52
2019-05-20T23:35:23.647Z,20.00
2019-05-20T23:37:54.421Z,23.40
2019-05-20T23:40:25.106Z,24.60
2019-05-20T23:42:56.003Z,19.32
2019-05-20T23:45:26.872Z,29.32
2019-05-20T23:47:57.884Z,21.80
2019-05-20T23:50:29.231Z,22.50
2019-05-20T23:53:00.106Z,23.70
2019-05-20T23:55:31.051Z,19.87
2019-05-20T23:58:02.082Z,24.07
